Time;durP1;ratioP1;P1;durP2;ratioP2;P2;SDS_P1;SDS_P2;PMS_P1;PMS_P2;Temp;Humidity;BMP_temperature;BMP_pressure;BME280_temperature;BME280_humidity;BME280_pressure;Samples;Min_cycle;Max_cycle;Signal;HPM_P1;HPM_P2
2023/04/28 00:00:50;;;;;;;5.22;3.25;;;10.90;98.80;;;;;;5067480;28;20066;-37
2023/04/28 00:03:16;;;;;;;9.80;3.70;;;11.00;98.80;;;;;;5068312;28;20035;-39
2023/04/28 00:05:42;;;;;;;12.23;4.10;;;10.90;98.90;;;;;;5068473;28;20508;-41
2023/04/28 00:08:07;;;;;;;5.93;3.67;;;11.00;98.80;;;;;;5052395;28;20025;-39
2023/04/28 00:10:33;;;;;;;4.40;3.03;;;10.90;98.90;;;;;;5052514;28;20032;-38
2023/04/28 00:12:59;;;;;;;8.35;3.33;;;10.90;99.30;;;;;;5055182;28;20055;-34
2023/04/28 00:15:25;;;;;;;9.40;3.58;;;10.80;99.40;;;;;;5066063;28;20016;-36
2023/04/28 00:17:51;;;;;;;4.38;3.15;;;10.80;99.40;;;;;;5072195;28;20027;-37
2023/04/28 00:20:16;;;;;;;5.00;3.40;;;10.80;99.20;;;;;;5071272;28;20374;-37
2023/04/28 00:22:42;;;;;;;6.38;3.72;;;10.80;99.20;;;;;;5059865;28;20021;-36
2023/04/28 00:25:08;;;;;;;13.63;4.38;;;10.80;99.40;;;;;;5060984;28;20102;-37
2023/04/28 00:27:34;;;;;;;6.10;3.40;;;10.80;99.50;;;;;;5066491;28;20025;-40
2023/04/28 00:30:00;;;;;;;5.07;3.05;;;10.80;99.70;;;;;;5053843;28;20537;-37
2023/04/28 00:32:26;;;;;;;7.25;3.33;;;10.80;99.70;;;;;;5069371;28;20132;-38
2023/04/28 00:34:52;;;;;;;6.35;2.78;;;10.70;99.90;;;;;;5059964;28;20390;-34
2023/04/28 00:37:18;;;;;;;6.55;3.53;;;10.80;99.90;;;;;;5062909;28;20074;-39
2023/04/28 00:39:47;;;;;;;7.38;3.00;;;10.80;99.90;;;;;;5074532;28;20507;-38
2023/04/28 00:42:15;;;;;;;6.63;3.10;;;10.70;99.90;;;;;;5075687;28;20040;-39
2023/04/28 00:44:41;;;;;;;6.40;3.53;;;10.80;99.70;;;;;;5067918;28;20025;-36
2023/04/28 00:47:09;;;;;;;4.93;3.22;;;10.80;99.90;;;;;;5055877;28;20543;-35
2023/04/28 00:49:35;;;;;;;6.32;3.35;;;10.70;99.90;;;;;;5055602;28;20044;-40
2023/04/28 00:52:05;;;;;;;5.38;3.15;;;10.70;99.90;;;;;;5057452;28;20025;-34
2023/04/28 00:54:34;;;;;;;6.50;3.63;;;10.70;99.90;;;;;;5057919;28;20029;-35
2023/04/28 00:57:01;;;;;;;6.78;3.03;;;10.70;99.90;;;;;;5075407;28;20500;-33
2023/04/28 00:59:27;;;;;;;4.88;3.13;;;10.70;99.90;;;;;;5074174;28;20116;-38
2023/04/28 01:01:53;;;;;;;9.07;3.20;;;10.70;99.90;;;;;;5075245;28;20021;-38
2023/04/28 01:04:20;;;;;;;4.93;3.35;;;10.60;99.90;;;;;;5072959;28;20373;-38
2023/04/28 01:06:46;;;;;;;4.55;3.38;;;10.60;99.90;;;;;;5064091;28;20024;-38
2023/04/28 01:09:12;;;;;;;8.98;3.10;;;10.60;99.90;;;;;;5070795;28;20036;-35
2023/04/28 01:11:38;;;;;;;7.88;4.03;;;10.60;99.90;;;;;;5074778;28;20040;-38
2023/04/28 01:14:03;;;;;;;6.97;2.90;;;10.50;99.90;;;;;;5074986;28;20025;-38
2023/04/28 01:16:31;;;;;;;8.18;2.97;;;10.50;99.90;;;;;;5073746;28;20392;-35
2023/04/28 01:18:58;;;;;;;6.68;3.78;;;10.60;99.90;;;;;;5075089;28;20038;-36
2023/04/28 01:21:33;;;;;;;5.00;2.63;;;10.60;99.90;;;;;;5061816;28;20023;-37
2023/04/28 01:24:01;;;;;;;8.93;4.38;;;10.60;99.90;;;;;;5072492;28;20047;-35
2023/04/28 01:26:27;;;;;;;6.20;3.22;;;10.60;99.90;;;;;;5074745;28;20031;-40
2023/04/28 01:28:53;;;;;;;8.00;3.92;;;10.50;99.90;;;;;;5074374;28;20465;-36
2023/04/28 01:31:19;;;;;;;4.82;2.85;;;10.60;99.90;;;;;;5058163;28;20029;-42
2023/04/28 01:33:44;;;;;;;5.38;3.13;;;10.60;99.90;;;;;;5067040;28;20024;-39
2023/04/28 01:36:10;;;;;;;6.18;3.35;;;10.50;99.90;;;;;;5074980;28;20420;-38
2023/04/28 01:38:36;;;;;;;6.63;3.45;;;10.60;99.90;;;;;;5074616;28;20051;-35
2023/04/28 01:41:02;;;;;;;7.15;2.85;;;10.50;99.90;;;;;;5072513;28;20409;-36
2023/04/28 01:43:28;;;;;;;4.75;3.17;;;10.50;99.90;;;;;;5062140;28;20024;-33
2023/04/28 01:45:53;;;;;;;4.65;3.20;;;10.50;99.90;;;;;;5057994;28;20029;-38
2023/04/28 01:48:19;;;;;;;2.72;2.15;;;10.50;99.90;;;;;;5061924;28;20393;-39
2023/04/28 01:50:45;;;;;;;6.15;2.90;;;10.50;99.90;;;;;;5057902;28;20062;-37
2023/04/28 01:53:11;;;;;;;6.15;2.90;;;10.50;99.90;;;;;;5068496;28;20035;-35
2023/04/28 01:55:39;;;;;;;5.53;3.03;;;10.50;99.90;;;;;;5065603;28;20028;-33
2023/04/28 01:58:06;;;;;;;8.27;3.15;;;10.40;99.90;;;;;;5074582;28;20493;-37
2023/04/28 02:00:31;;;;;;;4.47;2.53;;;10.50;99.90;;;;;;5072510;28;20101;-38
2023/04/28 02:02:57;;;;;;;7.65;2.70;;;10.50;99.90;;;;;;5074172;28;20087;-35
2023/04/28 02:05:22;;;;;;;4.72;2.83;;;10.50;99.90;;;;;;5072599;28;20024;-38
2023/04/28 02:07:48;;;;;;;7.47;3.00;;;10.50;99.90;;;;;;5072821;28;20099;-33
2023/04/28 02:10:14;;;;;;;7.18;2.92;;;10.50;99.90;;;;;;5072954;28;20392;-35
2023/04/28 02:12:41;;;;;;;3.97;2.63;;;10.60;99.90;;;;;;5073879;28;20025;-33
2023/04/28 02:15:08;;;;;;;7.78;2.72;;;10.50;99.90;;;;;;5065010;28;20482;-37
2023/04/28 02:17:33;;;;;;;3.17;2.55;;;10.50;99.90;;;;;;5059637;28;20485;-37
2023/04/28 02:19:59;;;;;;;4.43;3.00;;;10.50;99.90;;;;;;5072502;28;20109;-37
2023/04/28 02:22:24;;;;;;;6.97;2.92;;;10.50;99.90;;;;;;5073395;28;20111;-37
2023/04/28 02:24:50;;;;;;;7.93;3.10;;;10.50;99.90;;;;;;5072281;28;20019;-36
2023/04/28 02:27:16;;;;;;;4.28;3.20;;;10.50;99.90;;;;;;5073981;28;20113;-36
2023/04/28 02:29:41;;;;;;;4.13;2.67;;;10.50;99.90;;;;;;5072429;28;20028;-39
2023/04/28 02:32:07;;;;;;;9.38;3.10;;;10.50;99.90;;;;;;5073839;28;20020;-37
2023/04/28 02:34:33;;;;;;;7.82;2.50;;;10.50;99.90;;;;;;5068552;28;20052;-38
2023/04/28 02:36:58;;;;;;;5.95;2.83;;;10.40;99.90;;;;;;5073225;28;20020;-36
2023/04/28 02:39:25;;;;;;;4.85;2.45;;;10.40;99.90;;;;;;5071074;28;20469;-33
2023/04/28 02:41:52;;;;;;;4.45;2.83;;;10.30;99.90;;;;;;5071984;28;20075;-38
2023/04/28 02:44:18;;;;;;;6.25;2.85;;;10.40;99.90;;;;;;5072190;28;20024;-37
2023/04/28 02:46:44;;;;;;;6.13;2.75;;;10.40;99.90;;;;;;5069707;28;20500;-37
2023/04/28 02:49:10;;;;;;;4.70;2.92;;;10.30;99.90;;;;;;5073220;28;20025;-34
2023/04/28 02:51:35;;;;;;;11.90;4.18;;;10.30;99.90;;;;;;5073113;28;20052;-38
2023/04/28 02:54:01;;;;;;;3.90;3.03;;;10.30;99.90;;;;;;5071773;28;20055;-35
2023/04/28 02:56:28;;;;;;;5.90;2.85;;;10.40;99.90;;;;;;5071308;28;20107;-37
2023/04/28 02:58:54;;;;;;;3.05;1.83;;;10.30;99.90;;;;;;5072589;28;20020;-41
2023/04/28 03:01:20;;;;;;;3.35;2.70;;;10.30;99.90;;;;;;5067201;28;20527;-43
2023/04/28 03:03:45;;;;;;;6.07;2.80;;;10.30;99.90;;;;;;5066538;28;20111;-40
2023/04/28 03:06:11;;;;;;;6.38;3.10;;;10.30;99.90;;;;;;5060634;28;20041;-41
2023/04/28 03:08:37;;;;;;;7.40;3.10;;;10.30;99.90;;;;;;5069462;28;20043;-37
2023/04/28 03:11:02;;;;;;;3.60;2.78;;;10.30;99.90;;;;;;5071817;28;20016;-37
2023/04/28 03:13:28;;;;;;;7.90;2.90;;;10.30;99.90;;;;;;5072430;28;20107;-38
2023/04/28 03:15:55;;;;;;;6.00;3.22;;;10.20;99.90;;;;;;5065407;28;20051;-34
2023/04/28 03:18:21;;;;;;;5.03;3.03;;;10.20;99.90;;;;;;5072904;28;20024;-38
2023/04/28 03:20:47;;;;;;;3.80;2.08;;;10.20;99.90;;;;;;5071469;28;20082;-36
2023/04/28 03:23:13;;;;;;;4.55;2.42;;;10.30;99.90;;;;;;5073171;28;20465;-35
2023/04/28 03:25:38;;;;;;;4.13;2.80;;;10.30;99.90;;;;;;5063654;28;20021;-35
2023/04/28 03:28:04;;;;;;;5.38;2.70;;;10.20;99.90;;;;;;5073094;28;20031;-38
2023/04/28 03:30:30;;;;;;;4.82;2.78;;;10.20;99.90;;;;;;5070332;28;20082;-36
2023/04/28 03:32:56;;;;;;;3.75;2.40;;;10.20;99.90;;;;;;5060960;28;20028;-37
2023/04/28 03:35:21;;;;;;;3.00;2.30;;;10.20;99.90;;;;;;5072762;28;20107;-37
2023/04/28 03:37:47;;;;;;;4.32;2.70;;;10.20;99.90;;;;;;5072705;28;20028;-37
2023/04/28 03:40:13;;;;;;;3.72;2.47;;;10.30;99.90;;;;;;5071457;28;20071;-38
2023/04/28 03:42:38;;;;;;;3.33;2.65;;;10.30;99.90;;;;;;5070722;28;20033;-39
2023/04/28 03:45:04;;;;;;;8.70;2.78;;;10.30;99.90;;;;;;5071344;28;20442;-33
2023/04/28 03:47:30;;;;;;;7.10;3.15;;;10.30;99.90;;;;;;5072536;28;20024;-37
2023/04/28 03:49:57;;;;;;;3.53;2.33;;;10.30;99.90;;;;;;5071303;28;20048;-36
2023/04/28 03:52:23;;;;;;;2.65;2.28;;;10.30;99.90;;;;;;5070786;28;20082;-37
2023/04/28 03:54:49;;;;;;;7.30;2.95;;;10.20;99.90;;;;;;5072593;28;20025;-38
2023/04/28 03:57:14;;;;;;;4.07;2.50;;;10.30;99.90;;;;;;5071445;28;20075;-37
2023/04/28 03:59:40;;;;;;;5.78;2.95;;;10.30;99.90;;;;;;5067983;28;20036;-34
2023/04/28 04:02:06;;;;;;;7.40;3.55;;;10.30;99.90;;;;;;5052236;28;20067;-33
2023/04/28 04:04:31;;;;;;;4.10;2.90;;;10.30;99.90;;;;;;5068302;28;20025;-39
2023/04/28 04:06:58;;;;;;;3.25;2.67;;;10.30;99.90;;;;;;5071185;28;20074;-37
2023/04/28 04:09:24;;;;;;;6.05;2.97;;;10.20;99.90;;;;;;5070717;28;20534;-38
2023/04/28 04:11:49;;;;;;;3.72;2.78;;;10.20;99.90;;;;;;5061516;28;20033;-38
2023/04/28 04:14:15;;;;;;;4.45;2.75;;;10.20;99.90;;;;;;5074809;28;20043;-38
2023/04/28 04:16:41;;;;;;;7.03;2.67;;;10.20;99.90;;;;;;5067174;28;20408;-36
2023/04/28 04:19:06;;;;;;;5.80;3.50;;;10.30;99.90;;;;;;5074074;28;20028;-36
2023/04/28 04:21:32;;;;;;;5.07;3.00;;;10.30;99.90;;;;;;5071776;28;20028;-36
2023/04/28 04:23:58;;;;;;;5.45;3.08;;;10.40;99.90;;;;;;5064733;28;20059;-38
2023/04/28 04:26:23;;;;;;;7.30;3.03;;;10.40;99.90;;;;;;5073565;28;20441;-36
2023/04/28 04:28:49;;;;;;;5.78;2.65;;;10.40;99.90;;;;;;5075985;28;20109;-36
2023/04/28 04:31:15;;;;;;;4.72;2.85;;;10.40;99.90;;;;;;5073351;28;20028;-34
2023/04/28 04:33:40;;;;;;;5.97;3.13;;;10.40;99.90;;;;;;5075923;28;20028;-35
2023/04/28 04:36:06;;;;;;;4.70;3.05;;;10.40;99.90;;;;;;5070922;28;20112;-36
2023/04/28 04:38:32;;;;;;;6.25;3.38;;;10.40;99.90;;;;;;5055924;28;20371;-35
2023/04/28 04:40:58;;;;;;;6.20;3.50;;;10.40;99.90;;;;;;5055748;28;20041;-36
2023/04/28 04:43:23;;;;;;;6.82;2.85;;;10.40;99.90;;;;;;5075703;28;20106;-38
2023/04/28 04:45:49;;;;;;;5.95;3.28;;;10.40;99.90;;;;;;5073443;28;20115;-39
2023/04/28 04:48:15;;;;;;;4.60;3.15;;;10.40;99.90;;;;;;5074447;28;20078;-38
2023/04/28 04:50:42;;;;;;;7.10;3.75;;;10.40;99.90;;;;;;5075760;28;20085;-35
2023/04/28 04:53:08;;;;;;;6.15;3.60;;;10.40;99.90;;;;;;5075743;28;20484;-36
2023/04/28 04:55:33;;;;;;;5.45;3.58;;;10.40;99.90;;;;;;5074198;28;20025;-37
2023/04/28 04:57:59;;;;;;;5.93;3.47;;;10.40;99.90;;;;;;5074158;28;20063;-39
2023/04/28 05:00:25;;;;;;;7.38;3.40;;;10.40;99.90;;;;;;5074183;28;20431;-36
2023/04/28 05:02:50;;;;;;;4.93;3.20;;;10.40;99.90;;;;;;5074848;28;20029;-36
2023/04/28 05:05:16;;;;;;;9.88;3.60;;;10.40;99.90;;;;;;5071517;28;20409;-33
2023/04/28 05:07:42;;;;;;;11.68;3.25;;;10.30;99.90;;;;;;5073398;28;20108;-36
2023/04/28 05:10:10;;;;;;;7.13;3.65;;;10.40;99.90;;;;;;5074194;28;20025;-39
2023/04/28 05:12:36;;;;;;;13.13;3.58;;;10.40;99.90;;;;;;5074203;28;20112;-39
2023/04/28 05:15:03;;;;;;;8.50;4.13;;;10.30;99.90;;;;;;5075319;28;20055;-34
2023/04/28 05:17:28;;;;;;;9.05;3.85;;;10.40;99.90;;;;;;5055906;28;20033;-38
2023/04/28 05:19:54;;;;;;;5.35;3.55;;;10.40;99.90;;;;;;5055360;28;20100;-39
2023/04/28 05:22:20;;;;;;;7.95;3.92;;;10.50;99.90;;;;;;5071078;28;20025;-40
2023/04/28 05:24:45;;;;;;;5.75;4.05;;;10.50;99.90;;;;;;5073437;28;20020;-42
2023/04/28 05:27:11;;;;;;;7.32;3.63;;;10.50;99.90;;;;;;5058572;28;20029;-38
2023/04/28 05:29:36;;;;;;;5.60;3.72;;;10.50;99.90;;;;;;5054941;28;20040;-37
2023/04/28 05:32:02;;;;;;;8.80;4.30;;;10.40;99.90;;;;;;5055102;28;20371;-34
2023/04/28 05:34:28;;;;;;;13.77;4.43;;;10.40;99.90;;;;;;5085406;28;20067;-35
2023/04/28 05:36:53;;;;;;;7.63;4.65;;;10.50;99.90;;;;;;5077166;28;20078;-36
2023/04/28 05:39:19;;;;;;;6.32;3.92;;;10.50;99.90;;;;;;5054807;28;20470;-34
2023/04/28 05:41:44;;;;;;;9.52;4.25;;;10.40;99.90;;;;;;5063389;28;20052;-39
2023/04/28 05:44:10;;;;;;;5.45;4.07;;;10.40;99.90;;;;;;5073587;28;20473;-38
2023/04/28 05:46:36;;;;;;;9.43;4.70;;;10.50;99.90;;;;;;5074476;28;20037;-35
2023/04/28 05:49:02;;;;;;;10.23;4.63;;;10.50;99.90;;;;;;5073073;28;20024;-36
2023/04/28 05:51:27;;;;;;;7.28;4.85;;;10.50;99.90;;;;;;5074809;28;20077;-33
2023/04/28 05:53:53;;;;;;;10.77;4.93;;;10.50;99.90;;;;;;5074330;28;20111;-36
2023/04/28 05:56:19;;;;;;;10.70;4.88;;;10.50;99.90;;;;;;5073095;28;20485;-36
2023/04/28 05:58:46;;;;;;;9.15;4.90;;;10.50;99.90;;;;;;5073924;28;20013;-35
2023/04/28 06:01:12;;;;;;;7.18;4.55;;;10.50;99.90;;;;;;5072497;28;20082;-37
2023/04/28 06:03:41;;;;;;;7.45;4.68;;;10.50;99.90;;;;;;5074199;28;20029;-34
2023/04/28 06:06:08;;;;;;;12.40;4.90;;;10.50;99.90;;;;;;5064361;28;20028;-35
2023/04/28 06:08:34;;;;;;;10.82;4.95;;;10.40;99.90;;;;;;5066410;28;20032;-33
2023/04/28 06:10:59;;;;;;;9.88;5.05;;;10.40;99.90;;;;;;5072356;28;20028;-37
2023/04/28 06:13:25;;;;;;;8.57;5.80;;;10.50;99.90;;;;;;5071779;28;20040;-37
2023/04/28 06:15:51;;;;;;;13.73;5.45;;;10.40;99.90;;;;;;5057836;28;20390;-37
2023/04/28 06:18:16;;;;;;;10.60;5.63;;;10.50;99.90;;;;;;5069837;28;20442;-37
2023/04/28 06:20:42;;;;;;;10.35;6.90;;;10.40;99.90;;;;;;5073805;28;20082;-38
2023/04/28 06:23:08;;;;;;;11.00;6.10;;;10.30;99.90;;;;;;5073723;28;20032;-39
2023/04/28 06:25:35;;;;;;;10.68;5.93;;;10.20;99.90;;;;;;5072499;28;20386;-38
2023/04/28 06:28:01;;;;;;;10.75;5.88;;;10.00;99.90;;;;;;5073856;28;20480;-34
2023/04/28 06:30:26;;;;;;;16.70;6.55;;;10.00;99.90;;;;;;5073336;28;20039;-37
2023/04/28 06:32:52;;;;;;;12.13;6.25;;;10.00;99.90;;;;;;5072778;28;20489;-35
2023/04/28 06:35:18;;;;;;;12.77;6.15;;;10.10;99.90;;;;;;5073233;28;20028;-36
2023/04/28 06:37:43;;;;;;;16.02;6.80;;;10.10;99.90;;;;;;5073580;28;20029;-37
2023/04/28 06:40:10;;;;;;;14.68;7.10;;;10.20;99.90;;;;;;5072037;28;20165;-37
2023/04/28 06:42:35;;;;;;;20.05;6.90;;;10.30;99.90;;;;;;5070674;28;20393;-36
2023/04/28 06:45:02;;;;;;;11.40;7.15;;;10.30;99.90;;;;;;5064506;28;20021;-36
2023/04/28 06:47:27;;;;;;;14.02;6.70;;;10.40;99.90;;;;;;5053907;28;20493;-35
2023/04/28 06:49:53;;;;;;;14.93;6.13;;;10.30;99.90;;;;;;5055654;28;20025;-38
2023/04/28 06:52:21;;;;;;;15.23;7.25;;;10.30;99.90;;;;;;5071332;28;20021;-38
2023/04/28 06:54:47;;;;;;;11.85;7.03;;;10.40;99.90;;;;;;5073166;28;20136;-39
2023/04/28 06:57:13;;;;;;;11.85;6.82;;;10.50;99.90;;;;;;5067847;28;20044;-37
2023/04/28 06:59:38;;;;;;;11.32;7.07;;;10.60;99.90;;;;;;5073150;28;20419;-37
2023/04/28 07:02:04;;;;;;;14.82;6.50;;;10.60;99.90;;;;;;5056535;28;20068;-36
2023/04/28 07:04:30;;;;;;;12.20;6.93;;;10.70;99.90;;;;;;5053156;28;20094;-36
2023/04/28 07:06:56;;;;;;;15.60;6.25;;;10.70;99.90;;;;;;5055444;28;20118;-33
2023/04/28 07:09:21;;;;;;;11.48;5.85;;;10.90;99.90;;;;;;5070346;28;20036;-36
2023/04/28 07:11:47;;;;;;;13.55;7.30;;;10.90;99.90;;;;;;5070899;28;20029;-40
2023/04/28 07:14:13;;;;;;;18.08;8.10;;;10.90;99.90;;;;;;5058915;28;20036;-35
2023/04/28 07:16:38;;;;;;;11.40;6.85;;;11.00;99.90;;;;;;5052950;28;20079;-35
2023/04/28 07:19:04;;;;;;;14.90;6.80;;;11.10;99.90;;;;;;5052928;28;20021;-37
2023/04/28 07:21:30;;;;;;;13.80;7.22;;;11.20;99.90;;;;;;5051533;28;20064;-37
2023/04/28 07:23:55;;;;;;;13.70;7.00;;;11.20;99.90;;;;;;5063919;28;20120;-39
2023/04/28 07:26:24;;;;;;;12.93;7.78;;;11.30;99.90;;;;;;5057560;28;20032;-38
2023/04/28 07:28:50;;;;;;;20.20;7.28;;;11.40;99.90;;;;;;5059307;28;20024;-37
2023/04/28 07:31:16;;;;;;;14.00;7.68;;;11.40;99.90;;;;;;5064783;28;20032;-35
2023/04/28 07:33:42;;;;;;;13.52;7.50;;;11.40;99.90;;;;;;5067026;28;20085;-37
2023/04/28 07:36:08;;;;;;;12.20;7.15;;;11.50;99.90;;;;;;5064340;28;20024;-31
2023/04/28 07:38:34;;;;;;;12.65;7.78;;;11.50;99.90;;;;;;5062508;28;20161;-39
2023/04/28 07:41:00;;;;;;;14.55;7.65;;;11.50;99.90;;;;;;5054048;28;20045;-39
2023/04/28 07:43:26;;;;;;;16.92;8.93;;;11.40;99.90;;;;;;5053026;28;20485;-38
2023/04/28 07:45:52;;;;;;;16.88;8.10;;;11.40;99.90;;;;;;5060289;28;20107;-37
2023/04/28 07:48:17;;;;;;;14.73;9.13;;;11.40;99.90;;;;;;5065277;28;20039;-35
2023/04/28 07:50:43;;;;;;;15.85;8.35;;;11.40;99.90;;;;;;5063039;28;20027;-39
2023/04/28 07:53:09;;;;;;;19.05;8.25;;;11.40;99.90;;;;;;5065833;28;20047;-35
2023/04/28 07:55:35;;;;;;;14.30;8.00;;;11.40;99.90;;;;;;5076080;28;20492;-33
2023/04/28 07:58:01;;;;;;;13.93;8.85;;;11.40;99.90;;;;;;5069902;28;20473;-38
2023/04/28 08:00:26;;;;;;;17.85;8.20;;;11.50;99.90;;;;;;5058865;28;20108;-34
2023/04/28 08:02:52;;;;;;;13.35;8.38;;;11.60;99.90;;;;;;5060267;28;20048;-36
2023/04/28 08:05:18;;;;;;;22.60;10.25;;;11.60;99.90;;;;;;5069781;28;20054;-38
2023/04/28 08:07:44;;;;;;;12.13;7.85;;;11.70;99.90;;;;;;5068679;28;20354;-38
2023/04/28 08:10:10;;;;;;;24.35;10.20;;;11.70;99.90;;;;;;5076198;28;20108;-36
2023/04/28 08:12:37;;;;;;;12.02;8.32;;;11.70;99.90;;;;;;5071225;28;20548;-35
2023/04/28 08:15:03;;;;;;;18.45;9.18;;;11.70;99.90;;;;;;5076470;28;20023;-39
2023/04/28 08:17:29;;;;;;;23.00;10.07;;;11.80;99.90;;;;;;5061281;28;20070;-35
2023/04/28 08:19:54;;;;;;;17.80;9.73;;;11.90;99.90;;;;;;5076447;28;20021;-40
2023/04/28 08:22:20;;;;;;;16.67;9.90;;;12.10;99.90;;;;;;5076380;28;20035;-38
2023/04/28 08:24:46;;;;;;;18.45;9.43;;;12.10;99.90;;;;;;5076070;28;20040;-39
2023/04/28 08:27:11;;;;;;;18.55;10.18;;;12.20;99.90;;;;;;5076060;28;20488;-37
2023/04/28 08:29:39;;;;;;;23.45;9.80;;;12.30;99.90;;;;;;5075308;28;20492;-38
2023/04/28 08:32:05;;;;;;;19.73;9.82;;;12.40;99.90;;;;;;5072417;28;20567;-37
2023/04/28 08:34:31;;;;;;;15.40;9.73;;;12.40;99.90;;;;;;5073318;28;20033;-37
2023/04/28 08:36:57;;;;;;;15.80;10.45;;;12.40;99.90;;;;;;5075787;28;20029;-36
2023/04/28 08:39:25;;;;;;;23.33;10.48;;;12.40;99.90;;;;;;5075682;28;20364;-37
2023/04/28 08:41:51;;;;;;;23.42;10.38;;;12.40;99.90;;;;;;5075586;28;20067;-38
2023/04/28 08:44:17;;;;;;;15.70;9.35;;;12.50;99.90;;;;;;5075487;28;20021;-40
2023/04/28 08:46:44;;;;;;;16.13;10.50;;;12.50;99.90;;;;;;5067670;28;20116;-40
2023/04/28 08:49:17;;;;;;;19.65;11.25;;;12.50;99.90;;;;;;5069776;28;20021;-39
2023/04/28 08:51:54;;;;;;;19.02;11.25;;;12.50;99.90;;;;;;5075330;28;20495;-39
2023/04/28 08:54:22;;;;;;;17.17;10.35;;;12.50;99.90;;;;;;5075508;28;20025;-38
2023/04/28 08:56:47;;;;;;;;;;;12.50;99.90;;;;;;5075861;28;20112;-38
2023/04/28 08:59:14;;;;;;;27.70;10.48;;;12.50;99.90;;;;;;5075055;28;20351;-37
2023/04/28 09:01:40;;;;;;;18.13;11.35;;;12.60;99.90;;;;;;5075644;28;20465;-35
2023/04/28 09:04:06;;;;;;;25.63;12.68;;;12.60;99.90;;;;;;5074747;28;20024;-39
2023/04/28 09:06:35;;;;;;;18.17;10.30;;;12.70;99.90;;;;;;5073333;28;20058;-38
2023/04/28 09:09:19;;;;;;;17.67;11.25;;;12.70;99.90;;;;;;5069692;28;20025;-40
2023/04/28 09:12:00;;;;;;;17.45;10.77;;;12.80;99.90;;;;;;5075204;28;20508;-36
2023/04/28 09:14:31;;;;;;;17.15;11.00;;;12.90;99.90;;;;;;5075138;28;20477;-39
2023/04/28 09:16:57;;;;;;;27.10;10.82;;;12.90;99.90;;;;;;5081477;28;20450;-34
2023/04/28 09:19:24;;;;;;;17.05;9.90;;;13.00;99.90;;;;;;5075002;28;20031;-39
2023/04/28 09:21:55;;;;;;;16.70;9.90;;;13.10;99.90;;;;;;5063111;28;20477;-36
2023/04/28 09:24:32;;;;;;;15.40;10.48;;;13.10;99.90;;;;;;5066467;28;20473;-39
2023/04/28 09:26:59;;;;;;;17.23;9.90;;;13.10;99.90;;;;;;5066999;28;20021;-38
2023/04/28 09:29:25;;;;;;;18.65;10.82;;;13.10;99.90;;;;;;5072660;28;20123;-39
2023/04/28 09:31:51;;;;;;;16.15;10.35;;;13.20;99.90;;;;;;5075053;28;20043;-35
2023/04/28 09:34:18;;;;;;;17.90;10.90;;;13.20;99.90;;;;;;5074559;28;20021;-40
2023/04/28 09:36:43;;;;;;;13.02;8.73;;;13.30;99.90;;;;;;5068303;28;20039;-37
2023/04/28 09:39:09;;;;;;;14.82;8.80;;;13.30;99.90;;;;;;5069031;28;20469;-37
2023/04/28 09:41:39;;;;;;;15.10;8.63;;;13.40;99.90;;;;;;5066651;28;20053;-39
2023/04/28 09:44:15;;;;;;;13.77;9.48;;;13.50;99.90;;;;;;5059997;28;20029;-47
2023/04/28 09:46:43;;;;;;;15.45;9.65;;;13.50;99.90;;;;;;5065682;28;20416;-41
2023/04/28 09:49:10;;;;;;;12.32;8.23;;;13.40;99.90;;;;;;5060690;28;20370;-41
2023/04/28 09:51:36;;;;;;;13.88;8.63;;;13.40;99.90;;;;;;5070068;28;20029;-40
2023/04/28 09:54:03;;;;;;;19.42;9.70;;;13.50;99.90;;;;;;5071135;28;20036;-44
2023/04/28 09:56:30;;;;;;;15.77;9.95;;;13.50;99.90;;;;;;5062404;28;20066;-42
2023/04/28 09:59:00;;;;;;;18.45;10.60;;;13.60;99.90;;;;;;5067924;28;20033;-44
2023/04/28 10:01:39;;;;;;;16.13;10.23;;;13.60;99.90;;;;;;5066179;28;20052;-40
2023/04/28 10:04:06;;;;;;;16.40;10.88;;;13.60;99.90;;;;;;5070508;28;20032;-43
2023/04/28 10:06:35;;;;;;;16.00;8.88;;;13.60;99.90;;;;;;5072192;28;20103;-42
2023/04/28 10:09:00;;;;;;;16.48;9.15;;;13.70;99.90;;;;;;5071197;28;20071;-43
2023/04/28 10:11:27;;;;;;;16.85;9.20;;;13.60;99.90;;;;;;5059457;28;20076;-49
2023/04/28 10:13:53;;;;;;;15.75;9.68;;;13.60;99.90;;;;;;5065429;28;20029;-40
2023/04/28 10:16:19;;;;;;;14.68;9.60;;;13.60;99.90;;;;;;5058303;28;20584;-47
2023/04/28 10:18:45;;;;;;;12.23;8.93;;;13.60;99.90;;;;;;5066168;28;20029;-46
2023/04/28 10:21:16;;;;;;;17.58;9.75;;;13.60;99.90;;;;;;5073935;28;20472;-40
2023/04/28 10:23:56;;;;;;;16.30;8.93;;;13.60;99.90;;;;;;5073501;28;20392;-41
2023/04/28 10:26:34;;;;;;;12.95;8.68;;;13.60;99.90;;;;;;5073741;28;20477;-39
2023/04/28 10:28:59;;;;;;;12.05;6.85;;;13.60;99.90;;;;;;5055663;28;20103;-44
2023/04/28 10:31:25;;;;;;;13.20;8.93;;;13.70;99.90;;;;;;5060122;28;20107;-39
2023/04/28 10:33:51;;;;;;;13.70;8.90;;;13.70;99.90;;;;;;5057537;28;20722;-39
2023/04/28 10:36:54;;;;;;;15.75;9.68;;;13.80;99.90;;;;;;5056624;28;20028;-37
2023/04/28 10:39:20;;;;;;;17.17;8.88;;;13.70;99.90;;;;;;5059260;28;20029;-45
2023/04/28 10:41:47;;;;;;;16.98;9.15;;;13.80;99.90;;;;;;5061128;28;20465;-45
2023/04/28 10:44:31;;;;;;;18.50;9.55;;;13.80;99.90;;;;;;5058663;28;20327;-42
2023/04/28 10:47:02;;;;;;;17.23;9.88;;;13.90;99.90;;;;;;5071872;28;20032;-42
2023/04/28 10:50:05;;;;;;;15.13;10.05;;;13.90;99.90;;;;;;5072044;28;20516;-42
2023/04/28 10:52:40;;;;;;;16.13;9.20;;;14.00;99.90;;;;;;5053629;28;20037;-44
2023/04/28 10:55:40;;;;;;;15.15;8.52;;;14.00;99.90;;;;;;5055362;28;20044;-40
2023/04/28 10:58:14;;;;;;;13.43;7.93;;;14.10;99.90;;;;;;5064931;28;20035;-43
2023/04/28 11:00:41;;;;;;;18.38;8.05;;;14.10;99.90;;;;;;5071141;28;20111;-48
2023/04/28 11:03:07;;;;;;;11.23;7.00;;;14.30;99.90;;;;;;5059826;28;20053;-44
2023/04/28 11:05:35;;;;;;;9.68;6.10;;;14.30;99.90;;;;;;5061715;28;20501;-45
2023/04/28 11:08:24;;;;;;;10.32;6.00;;;14.40;99.90;;;;;;5073102;28;20029;-34
2023/04/28 11:11:39;;;;;;;9.75;4.82;;;14.50;99.90;;;;;;5062477;28;20036;-43
2023/04/28 11:14:17;;;;;;;16.27;5.22;;;14.50;99.90;;;;;;5046648;28;20052;-44
2023/04/28 11:17:01;;;;;;;10.85;4.03;;;14.50;99.90;;;;;;5068850;28;20386;-46
2023/04/28 11:19:37;;;;;;;9.25;4.35;;;14.60;99.90;;;;;;5064758;28;20389;-47
2023/04/28 11:22:14;;;;;;;5.90;3.65;;;14.60;99.90;;;;;;5064192;28;20027;-46
2023/04/28 11:24:40;;;;;;;5.10;2.97;;;14.60;99.90;;;;;;5072173;28;20087;-47
2023/04/28 11:27:06;;;;;;;3.42;2.50;;;14.70;99.90;;;;;;5073092;28;20028;-43
2023/04/28 11:29:32;;;;;;;4.20;2.10;;;14.80;99.90;;;;;;5073085;28;20038;-43
2023/04/28 11:31:58;;;;;;;5.45;1.85;;;14.90;99.90;;;;;;5072815;28;20086;-46
2023/04/28 11:34:24;;;;;;;4.20;1.40;;;15.00;99.90;;;;;;5069460;28;20032;-36
2023/04/28 11:36:50;;;;;;;1.88;1.40;;;15.00;99.90;;;;;;5069279;28;20023;-41
2023/04/28 11:39:24;;;;;;;1.00;0.90;;;15.00;99.90;;;;;;5072799;28;20500;-44
2023/04/28 11:41:49;;;;;;;3.75;2.80;;;15.10;99.90;;;;;;5063216;28;20052;-42
2023/04/28 11:44:20;;;;;;;0.88;0.82;;;15.00;99.90;;;;;;5065866;28;20473;-48
2023/04/28 11:46:50;;;;;;;1.40;0.98;;;15.00;99.90;;;;;;5071387;28;20485;-43
2023/04/28 11:49:17;;;;;;;5.40;0.90;;;14.90;99.90;;;;;;5073271;28;20485;-48
2023/04/28 11:51:45;;;;;;;0.85;0.82;;;14.80;99.90;;;;;;5059294;28;20032;-45
2023/04/28 11:54:13;;;;;;;2.75;0.90;;;14.80;99.90;;;;;;5058804;28;20130;-43
2023/04/28 11:56:40;;;;;;;0.50;0.50;;;14.80;99.90;;;;;;5059083;28;20036;-45
2023/04/28 11:59:09;;;;;;;1.40;1.30;;;14.90;99.90;;;;;;5064842;28;20037;-47
2023/04/28 12:01:47;;;;;;;1.77;1.52;;;14.80;99.90;;;;;;5054702;28;20457;-44
2023/04/28 12:04:14;;;;;;;3.25;1.52;;;14.90;99.90;;;;;;5052640;28;20096;-44
2023/04/28 12:06:40;;;;;;;2.45;1.92;;;14.90;99.90;;;;;;5052768;28;20033;-43
2023/04/28 12:09:17;;;;;;;3.85;1.63;;;14.90;99.90;;;;;;5052486;28;20028;-42
2023/04/28 12:12:01;;;;;;;2.60;1.67;;;14.90;99.90;;;;;;5063681;28;20064;-48
2023/04/28 12:14:26;;;;;;;3.38;1.92;;;14.90;99.90;;;;;;5061235;28;20024;-46
2023/04/28 12:16:52;;;;;;;3.08;2.25;;;14.90;99.90;;;;;;5072358;28;20024;-46
2023/04/28 12:19:19;;;;;;;3.22;2.40;;;14.90;99.90;;;;;;5072439;28;20541;-44
2023/04/28 12:21:59;;;;;;;3.08;2.67;;;14.90;99.90;;;;;;5072598;28;20074;-43
2023/04/28 12:24:25;;;;;;;2.30;2.10;;;14.80;99.90;;;;;;5072350;28;20086;-44
2023/04/28 12:26:53;;;;;;;3.22;2.67;;;14.90;99.90;;;;;;5068688;28;20070;-50
2023/04/28 12:29:41;;;;;;;2.85;2.65;;;14.80;99.90;;;;;;5067441;28;20503;-48
2023/04/28 12:32:08;;;;;;;3.05;2.85;;;14.90;99.90;;;;;;5056880;28;20029;-46
2023/04/28 12:34:35;;;;;;;3.03;2.78;;;14.90;99.90;;;;;;5054942;28;20057;-45
2023/04/28 12:37:02;;;;;;;2.90;2.70;;;14.90;99.90;;;;;;5055834;28;20017;-47
2023/04/28 12:39:29;;;;;;;2.70;2.50;;;14.90;99.90;;;;;;5056078;28;20096;-47
2023/04/28 12:41:55;;;;;;;2.53;2.37;;;14.90;99.90;;;;;;5055799;28;20049;-44
2023/04/28 12:44:23;;;;;;;2.47;2.28;;;14.80;99.90;;;;;;5055992;28;20321;-46